weather.gov     
National Weather Service

Terminal Aerodrome Forecast
NWS Homepage
This page is being discontinued on March 12, 2014.
The same data is available at this site. Please update your bookmarks.
Thank you, and we apologize for the inconvenience.
Please send an email to SR-SRH.Webmaster@noaa.gov with any concerns.


Current Version
Previous Version:    01  02  03  04  05  06  07  08  09  10  11  12  13  14  15  16  17  18  19  20  21  22  23  24  25  26  27  28  29  30  
   31  32  33  34  35  36  37  38  39  40  41  42  43  44  45  46  47  48  49  50  51  52  53  54  55  56  
[Printable]
389
FTUS42 KRAH 012351 CCA
TAFRDU
TAF COR
KRDU 012351Z 0200/0224 04007KT 3SM -RA BR BKN009 OVC015
      TEMPO 0200/0204 2SM -RA BR OVC004
     FM020400 04006KT 2SM BR OVC004
     FM021500 VRB05KT P6SM VCSH SCT010 BKN015 PROB30 0216/0220 TSRA
      BKN015CB=




389
FTUS42 KRAH 012351 CCA
TAFRDU
TAF COR
KRDU 012351Z 0200/0224 04007KT 3SM -RA BR BKN009 OVC015
      TEMPO 0200/0204 2SM -RA BR OVC004
     FM020400 04006KT 2SM BR OVC004
     FM021500 VRB05KT P6SM VCSH SCT010 BKN015 PROB30 0216/0220 TSRA
      BKN015CB=


U.S. Dept. of Commerce
NOAA National Weather Service
1325 East West Highway
Silver Spring, MD 20910
E-mail: w-nws.webmaster@noaa.gov
Page last modified: May 16, 2007
NATIONAL WEATHER SERVICE: for Safety, for Work, for Fun - FOR LIFE